sensor_id;sensor_type;location;lat;lon;timestamp;temperature;humidity
8953;DHT22;4511;50.890;8.054;2023-12-20T00:00:22;5.90;99.90
8953;DHT22;4511;50.890;8.054;2023-12-20T00:02:49;5.90;99.90
8953;DHT22;4511;50.890;8.054;2023-12-20T00:05:16;5.90;99.90
8953;DHT22;4511;50.890;8.054;2023-12-20T00:07:44;5.90;99.90
8953;DHT22;4511;50.890;8.054;2023-12-20T00:10:11;5.90;99.90
8953;DHT22;4511;50.890;8.054;2023-12-20T00:12:38;5.90;99.90
8953;DHT22;4511;50.890;8.054;2023-12-20T00:15:06;5.90;99.90
8953;DHT22;4511;50.890;8.054;2023-12-20T00:17:33;5.90;99.90
8953;DHT22;4511;50.890;8.054;2023-12-20T00:20:00;5.90;99.90
8953;DHT22;4511;50.890;8.054;2023-12-20T00:22:27;5.90;99.90
8953;DHT22;4511;50.890;8.054;2023-12-20T00:24:55;5.90;99.90
8953;DHT22;4511;50.890;8.054;2023-12-20T00:27:21;6.00;99.90
8953;DHT22;4511;50.890;8.054;2023-12-20T00:29:48;6.00;99.90
8953;DHT22;4511;50.890;8.054;2023-12-20T00:32:15;6.00;99.90
8953;DHT22;4511;50.890;8.054;2023-12-20T00:34:43;6.00;99.90
8953;DHT22;4511;50.890;8.054;2023-12-20T00:37:09;6.00;99.90
8953;DHT22;4511;50.890;8.054;2023-12-20T00:39:36;6.00;99.90
8953;DHT22;4511;50.890;8.054;2023-12-20T00:42:05;6.00;99.90
8953;DHT22;4511;50.890;8.054;2023-12-20T00:44:31;6.00;99.90
8953;DHT22;4511;50.890;8.054;2023-12-20T00:46:58;6.10;99.90
8953;DHT22;4511;50.890;8.054;2023-12-20T00:49:25;6.10;99.90
8953;DHT22;4511;50.890;8.054;2023-12-20T00:51:51;6.10;99.90
8953;DHT22;4511;50.890;8.054;2023-12-20T00:54:18;6.10;99.90
8953;DHT22;4511;50.890;8.054;2023-12-20T00:56:45;6.10;99.90
8953;DHT22;4511;50.890;8.054;2023-12-20T00:59:13;6.10;99.90
8953;DHT22;4511;50.890;8.054;2023-12-20T01:01:40;6.10;99.90
8953;DHT22;4511;50.890;8.054;2023-12-20T01:04:07;6.10;99.90
8953;DHT22;4511;50.890;8.054;2023-12-20T01:06:34;6.20;99.90
8953;DHT22;4511;50.890;8.054;2023-12-20T01:09:01;6.10;99.90
8953;DHT22;4511;50.890;8.054;2023-12-20T01:11:28;6.10;99.90
8953;DHT22;4511;50.890;8.054;2023-12-20T01:13:55;6.10;99.90
8953;DHT22;4511;50.890;8.054;2023-12-20T01:16:23;6.20;99.90
8953;DHT22;4511;50.890;8.054;2023-12-20T01:18:49;6.20;99.90
8953;DHT22;4511;50.890;8.054;2023-12-20T01:21:16;6.20;99.90
8953;DHT22;4511;50.890;8.054;2023-12-20T01:23:43;6.20;99.90
8953;DHT22;4511;50.890;8.054;2023-12-20T01:26:09;6.30;99.90
8953;DHT22;4511;50.890;8.054;2023-12-20T01:28:37;6.20;99.90
8953;DHT22;4511;50.890;8.054;2023-12-20T01:31:03;6.20;99.90
8953;DHT22;4511;50.890;8.054;2023-12-20T01:33:32;6.30;99.90
8953;DHT22;4511;50.890;8.054;2023-12-20T01:35:58;6.30;99.90
8953;DHT22;4511;50.890;8.054;2023-12-20T01:38:25;6.30;99.90
8953;DHT22;4511;50.890;8.054;2023-12-20T01:40:52;6.20;99.90
8953;DHT22;4511;50.890;8.054;2023-12-20T01:43:18;6.20;99.90
8953;DHT22;4511;50.890;8.054;2023-12-20T01:45:46;6.30;99.90
8953;DHT22;4511;50.890;8.054;2023-12-20T01:48:13;6.30;99.90
8953;DHT22;4511;50.890;8.054;2023-12-20T01:50:43;6.30;99.90
8953;DHT22;4511;50.890;8.054;2023-12-20T01:53:12;6.30;99.90
8953;DHT22;4511;50.890;8.054;2023-12-20T01:55:40;6.30;99.90
8953;DHT22;4511;50.890;8.054;2023-12-20T01:58:08;6.30;99.90
8953;DHT22;4511;50.890;8.054;2023-12-20T02:00:36;6.30;99.90
8953;DHT22;4511;50.890;8.054;2023-12-20T02:03:03;6.30;99.90
8953;DHT22;4511;50.890;8.054;2023-12-20T02:05:30;6.30;99.90
8953;DHT22;4511;50.890;8.054;2023-12-20T02:07:59;6.30;99.90
8953;DHT22;4511;50.890;8.054;2023-12-20T02:10:26;6.30;99.90
8953;DHT22;4511;50.890;8.054;2023-12-20T02:12:53;6.30;99.90
8953;DHT22;4511;50.890;8.054;2023-12-20T02:15:20;6.30;99.90
8953;DHT22;4511;50.890;8.054;2023-12-20T02:17:47;6.40;99.90
8953;DHT22;4511;50.890;8.054;2023-12-20T02:20:14;6.30;99.90
8953;DHT22;4511;50.890;8.054;2023-12-20T02:22:43;6.30;99.90
8953;DHT22;4511;50.890;8.054;2023-12-20T02:25:09;6.30;99.90
8953;DHT22;4511;50.890;8.054;2023-12-20T02:27:36;6.40;99.90
8953;DHT22;4511;50.890;8.054;2023-12-20T02:30:04;6.30;99.90
8953;DHT22;4511;50.890;8.054;2023-12-20T02:32:31;6.30;99.90
8953;DHT22;4511;50.890;8.054;2023-12-20T02:34:57;6.30;99.90
8953;DHT22;4511;50.890;8.054;2023-12-20T02:37:24;6.30;99.90
8953;DHT22;4511;50.890;8.054;2023-12-20T02:39:52;6.30;99.90
8953;DHT22;4511;50.890;8.054;2023-12-20T02:42:19;6.30;99.90
8953;DHT22;4511;50.890;8.054;2023-12-20T02:44:46;6.30;99.90
8953;DHT22;4511;50.890;8.054;2023-12-20T02:47:12;6.20;99.90
8953;DHT22;4511;50.890;8.054;2023-12-20T02:49:39;6.20;99.90
8953;DHT22;4511;50.890;8.054;2023-12-20T02:52:06;6.20;99.90
8953;DHT22;4511;50.890;8.054;2023-12-20T02:54:33;6.20;99.90
8953;DHT22;4511;50.890;8.054;2023-12-20T02:57:01;6.10;99.90
8953;DHT22;4511;50.890;8.054;2023-12-20T02:59:27;6.10;99.90
8953;DHT22;4511;50.890;8.054;2023-12-20T03:01:54;6.20;99.90
8953;DHT22;4511;50.890;8.054;2023-12-20T03:04:21;6.20;99.90
8953;DHT22;4511;50.890;8.054;2023-12-20T03:06:47;6.10;99.90
8953;DHT22;4511;50.890;8.054;2023-12-20T03:09:14;6.10;99.90
8953;DHT22;4511;50.890;8.054;2023-12-20T03:11:41;6.00;99.90
8953;DHT22;4511;50.890;8.054;2023-12-20T03:14:09;6.10;99.90
8953;DHT22;4511;50.890;8.054;2023-12-20T03:16:36;6.00;99.90
8953;DHT22;4511;50.890;8.054;2023-12-20T03:19:02;6.10;99.90
8953;DHT22;4511;50.890;8.054;2023-12-20T03:21:29;6.10;99.90
8953;DHT22;4511;50.890;8.054;2023-12-20T03:23:56;6.00;99.90
8953;DHT22;4511;50.890;8.054;2023-12-20T03:26:23;6.00;99.90
8953;DHT22;4511;50.890;8.054;2023-12-20T03:28:49;6.00;99.90
8953;DHT22;4511;50.890;8.054;2023-12-20T03:31:17;6.00;99.90
8953;DHT22;4511;50.890;8.054;2023-12-20T03:33:45;6.00;99.90
8953;DHT22;4511;50.890;8.054;2023-12-20T03:36:11;5.90;99.90
8953;DHT22;4511;50.890;8.054;2023-12-20T03:38:38;5.90;99.90
8953;DHT22;4511;50.890;8.054;2023-12-20T03:41:06;5.90;99.90
8953;DHT22;4511;50.890;8.054;2023-12-20T03:43:33;5.90;99.90
8953;DHT22;4511;50.890;8.054;2023-12-20T03:46:00;5.90;99.90
8953;DHT22;4511;50.890;8.054;2023-12-20T03:48:30;5.90;99.90
8953;DHT22;4511;50.890;8.054;2023-12-20T03:50:57;5.80;99.90
8953;DHT22;4511;50.890;8.054;2023-12-20T03:53:24;5.80;99.90
8953;DHT22;4511;50.890;8.054;2023-12-20T03:55:50;5.80;99.90
8953;DHT22;4511;50.890;8.054;2023-12-20T03:58:17;5.80;99.90
8953;DHT22;4511;50.890;8.054;2023-12-20T04:00:44;5.70;99.90
8953;DHT22;4511;50.890;8.054;2023-12-20T04:03:10;5.70;99.90
8953;DHT22;4511;50.890;8.054;2023-12-20T04:05:40;5.70;99.90
8953;DHT22;4511;50.890;8.054;2023-12-20T04:08:07;5.70;99.90
8953;DHT22;4511;50.890;8.054;2023-12-20T04:10:34;5.70;99.90
8953;DHT22;4511;50.890;8.054;2023-12-20T04:13:03;5.60;99.90
8953;DHT22;4511;50.890;8.054;2023-12-20T04:15:29;5.60;99.90
8953;DHT22;4511;50.890;8.054;2023-12-20T04:17:56;5.70;99.90
8953;DHT22;4511;50.890;8.054;2023-12-20T04:20:23;5.70;99.90
8953;DHT22;4511;50.890;8.054;2023-12-20T04:22:51;5.70;99.90
8953;DHT22;4511;50.890;8.054;2023-12-20T04:25:18;5.60;99.90
8953;DHT22;4511;50.890;8.054;2023-12-20T04:27:44;5.50;99.90
8953;DHT22;4511;50.890;8.054;2023-12-20T04:30:12;5.50;99.90
8953;DHT22;4511;50.890;8.054;2023-12-20T04:32:38;5.50;99.90
8953;DHT22;4511;50.890;8.054;2023-12-20T04:35:05;5.50;99.90
8953;DHT22;4511;50.890;8.054;2023-12-20T04:37:32;5.50;99.90
8953;DHT22;4511;50.890;8.054;2023-12-20T04:40:00;5.50;99.90
8953;DHT22;4511;50.890;8.054;2023-12-20T04:42:27;5.50;99.90
8953;DHT22;4511;50.890;8.054;2023-12-20T04:44:54;5.50;99.90
8953;DHT22;4511;50.890;8.054;2023-12-20T04:47:21;5.30;99.90
8953;DHT22;4511;50.890;8.054;2023-12-20T04:49:48;5.40;99.90
8953;DHT22;4511;50.890;8.054;2023-12-20T04:52:14;5.30;99.90
8953;DHT22;4511;50.890;8.054;2023-12-20T04:54:41;5.40;99.90
8953;DHT22;4511;50.890;8.054;2023-12-20T04:57:09;5.30;99.90
8953;DHT22;4511;50.890;8.054;2023-12-20T04:59:36;5.30;99.90
8953;DHT22;4511;50.890;8.054;2023-12-20T05:02:03;5.20;99.90
8953;DHT22;4511;50.890;8.054;2023-12-20T05:04:30;5.20;99.90
8953;DHT22;4511;50.890;8.054;2023-12-20T05:06:56;5.30;99.90
8953;DHT22;4511;50.890;8.054;2023-12-20T05:09:23;5.40;99.90
8953;DHT22;4511;50.890;8.054;2023-12-20T05:11:50;5.30;99.90
8953;DHT22;4511;50.890;8.054;2023-12-20T05:14:18;5.40;99.90
8953;DHT22;4511;50.890;8.054;2023-12-20T05:16:44;5.40;99.90
8953;DHT22;4511;50.890;8.054;2023-12-20T05:19:11;5.40;99.90
8953;DHT22;4511;50.890;8.054;2023-12-20T05:21:38;5.30;99.90
8953;DHT22;4511;50.890;8.054;2023-12-20T05:24:05;5.30;99.90
8953;DHT22;4511;50.890;8.054;2023-12-20T05:26:32;5.30;99.90
8953;DHT22;4511;50.890;8.054;2023-12-20T05:28:58;5.30;99.90
8953;DHT22;4511;50.890;8.054;2023-12-20T05:31:26;5.30;99.90
8953;DHT22;4511;50.890;8.054;2023-12-20T05:33:54;5.40;99.90
8953;DHT22;4511;50.890;8.054;2023-12-20T05:36:20;5.30;99.90
8953;DHT22;4511;50.890;8.054;2023-12-20T05:38:47;5.20;99.90
8953;DHT22;4511;50.890;8.054;2023-12-20T05:41:14;5.20;99.90
8953;DHT22;4511;50.890;8.054;2023-12-20T05:43:40;5.30;99.90
8953;DHT22;4511;50.890;8.054;2023-12-20T05:46:09;5.30;99.90
8953;DHT22;4511;50.890;8.054;2023-12-20T05:48:37;5.40;99.90
8953;DHT22;4511;50.890;8.054;2023-12-20T05:51:04;5.20;99.90
8953;DHT22;4511;50.890;8.054;2023-12-20T05:53:31;5.20;99.90
8953;DHT22;4511;50.890;8.054;2023-12-20T05:55:57;5.20;99.90
8953;DHT22;4511;50.890;8.054;2023-12-20T05:58:25;5.30;99.90
8953;DHT22;4511;50.890;8.054;2023-12-20T06:00:52;5.30;99.90
8953;DHT22;4511;50.890;8.054;2023-12-20T06:03:18;5.40;99.90
8953;DHT22;4511;50.890;8.054;2023-12-20T06:05:46;5.40;99.90
8953;DHT22;4511;50.890;8.054;2023-12-20T06:08:13;5.70;99.90
8953;DHT22;4511;50.890;8.054;2023-12-20T06:10:40;5.60;99.90
8953;DHT22;4511;50.890;8.054;2023-12-20T06:13:07;5.50;99.90
8953;DHT22;4511;50.890;8.054;2023-12-20T06:15:33;5.50;99.90
8953;DHT22;4511;50.890;8.054;2023-12-20T06:18:01;5.40;99.90
8953;DHT22;4511;50.890;8.054;2023-12-20T06:20:27;5.40;99.90
8953;DHT22;4511;50.890;8.054;2023-12-20T06:22:55;5.20;99.90
8953;DHT22;4511;50.890;8.054;2023-12-20T06:25:22;5.30;99.90
8953;DHT22;4511;50.890;8.054;2023-12-20T06:27:49;5.20;99.90
8953;DHT22;4511;50.890;8.054;2023-12-20T06:30:16;5.30;99.90
8953;DHT22;4511;50.890;8.054;2023-12-20T06:32:43;5.30;99.90
8953;DHT22;4511;50.890;8.054;2023-12-20T06:35:12;5.60;99.90
8953;DHT22;4511;50.890;8.054;2023-12-20T06:37:39;5.60;99.90
8953;DHT22;4511;50.890;8.054;2023-12-20T06:40:09;5.50;99.90
8953;DHT22;4511;50.890;8.054;2023-12-20T06:42:37;5.40;99.90
8953;DHT22;4511;50.890;8.054;2023-12-20T06:45:04;5.40;99.90
8953;DHT22;4511;50.890;8.054;2023-12-20T06:47:31;5.40;99.90
8953;DHT22;4511;50.890;8.054;2023-12-20T06:49:58;5.40;99.90
8953;DHT22;4511;50.890;8.054;2023-12-20T06:52:25;5.30;99.90
8953;DHT22;4511;50.890;8.054;2023-12-20T06:54:51;5.40;99.90
8953;DHT22;4511;50.890;8.054;2023-12-20T06:57:20;5.40;99.90
8953;DHT22;4511;50.890;8.054;2023-12-20T06:59:46;5.40;99.90
8953;DHT22;4511;50.890;8.054;2023-12-20T07:02:13;5.50;99.90
8953;DHT22;4511;50.890;8.054;2023-12-20T07:04:40;5.40;99.90
8953;DHT22;4511;50.890;8.054;2023-12-20T07:07:07;5.30;99.90
8953;DHT22;4511;50.890;8.054;2023-12-20T07:09:34;5.40;99.90
8953;DHT22;4511;50.890;8.054;2023-12-20T07:12:01;5.30;99.90
8953;DHT22;4511;50.890;8.054;2023-12-20T07:14:29;5.30;99.90
8953;DHT22;4511;50.890;8.054;2023-12-20T07:16:56;5.20;99.90
8953;DHT22;4511;50.890;8.054;2023-12-20T07:19:22;5.20;99.90
8953;DHT22;4511;50.890;8.054;2023-12-20T07:21:49;5.20;99.90
8953;DHT22;4511;50.890;8.054;2023-12-20T07:24:16;5.20;99.90
8953;DHT22;4511;50.890;8.054;2023-12-20T07:26:43;5.20;99.90
8953;DHT22;4511;50.890;8.054;2023-12-20T07:29:09;5.30;99.90
8953;DHT22;4511;50.890;8.054;2023-12-20T07:31:37;5.30;99.90
8953;DHT22;4511;50.890;8.054;2023-12-20T07:34:04;5.30;99.90
8953;DHT22;4511;50.890;8.054;2023-12-20T07:36:31;5.30;99.90
8953;DHT22;4511;50.890;8.054;2023-12-20T07:38:58;5.30;99.90
8953;DHT22;4511;50.890;8.054;2023-12-20T07:41:25;5.30;99.90
8953;DHT22;4511;50.890;8.054;2023-12-20T07:43:52;5.30;99.90
8953;DHT22;4511;50.890;8.054;2023-12-20T07:46:20;5.20;99.90
8953;DHT22;4511;50.890;8.054;2023-12-20T07:48:50;5.10;99.90
8953;DHT22;4511;50.890;8.054;2023-12-20T07:51:17;5.20;99.90
8953;DHT22;4511;50.890;8.054;2023-12-20T07:53:44;5.20;99.90
8953;DHT22;4511;50.890;8.054;2023-12-20T07:56:14;5.30;99.90
8953;DHT22;4511;50.890;8.054;2023-12-20T07:58:41;5.20;99.90
8953;DHT22;4511;50.890;8.054;2023-12-20T08:01:08;5.30;99.90
8953;DHT22;4511;50.890;8.054;2023-12-20T08:03:35;5.30;99.90
8953;DHT22;4511;50.890;8.054;2023-12-20T08:06:04;5.30;99.90
8953;DHT22;4511;50.890;8.054;2023-12-20T08:08:31;5.40;99.90
8953;DHT22;4511;50.890;8.054;2023-12-20T08:10:57;5.30;99.90
8953;DHT22;4511;50.890;8.054;2023-12-20T08:13:25;5.30;99.90
8953;DHT22;4511;50.890;8.054;2023-12-20T08:15:53;5.30;99.90
8953;DHT22;4511;50.890;8.054;2023-12-20T08:18:21;5.40;99.90
8953;DHT22;4511;50.890;8.054;2023-12-20T08:20:48;5.40;99.90
8953;DHT22;4511;50.890;8.054;2023-12-20T08:23:16;5.30;99.90
8953;DHT22;4511;50.890;8.054;2023-12-20T08:25:43;5.30;99.90
8953;DHT22;4511;50.890;8.054;2023-12-20T08:28:10;5.30;99.90
8953;DHT22;4511;50.890;8.054;2023-12-20T08:30:36;5.30;99.90
8953;DHT22;4511;50.890;8.054;2023-12-20T08:33:04;5.30;99.90
8953;DHT22;4511;50.890;8.054;2023-12-20T08:35:30;5.30;99.90
8953;DHT22;4511;50.890;8.054;2023-12-20T08:37:57;5.30;99.90
8953;DHT22;4511;50.890;8.054;2023-12-20T08:40:25;5.40;99.90
8953;DHT22;4511;50.890;8.054;2023-12-20T08:42:52;5.30;99.90
8953;DHT22;4511;50.890;8.054;2023-12-20T08:45:18;5.30;99.90
8953;DHT22;4511;50.890;8.054;2023-12-20T08:47:45;5.30;99.90
8953;DHT22;4511;50.890;8.054;2023-12-20T08:50:12;5.30;99.90
8953;DHT22;4511;50.890;8.054;2023-12-20T08:52:40;5.40;99.90
8953;DHT22;4511;50.890;8.054;2023-12-20T08:55:08;5.40;99.90
8953;DHT22;4511;50.890;8.054;2023-12-20T08:57:36;5.30;99.90
8953;DHT22;4511;50.890;8.054;2023-12-20T09:00:04;5.30;99.90
8953;DHT22;4511;50.890;8.054;2023-12-20T09:02:32;5.30;99.90
8953;DHT22;4511;50.890;8.054;2023-12-20T09:05:01;5.20;99.90
8953;DHT22;4511;50.890;8.054;2023-12-20T09:07:28;5.20;99.90
8953;DHT22;4511;50.890;8.054;2023-12-20T09:09:57;5.20;99.90
8953;DHT22;4511;50.890;8.054;2023-12-20T09:12:24;5.20;99.90
8953;DHT22;4511;50.890;8.054;2023-12-20T09:14:52;5.20;99.90
8953;DHT22;4511;50.890;8.054;2023-12-20T09:17:19;5.20;99.90
8953;DHT22;4511;50.890;8.054;2023-12-20T09:19:46;5.20;99.90
8953;DHT22;4511;50.890;8.054;2023-12-20T09:22:13;5.20;99.90
8953;DHT22;4511;50.890;8.054;2023-12-20T09:24:39;5.20;99.90
8953;DHT22;4511;50.890;8.054;2023-12-20T09:27:06;5.20;99.90
8953;DHT22;4511;50.890;8.054;2023-12-20T09:29:33;5.30;99.90
8953;DHT22;4511;50.890;8.054;2023-12-20T09:32:01;5.20;99.90
8953;DHT22;4511;50.890;8.054;2023-12-20T09:34:28;5.20;99.90
8953;DHT22;4511;50.890;8.054;2023-12-20T09:36:55;5.20;99.90
8953;DHT22;4511;50.890;8.054;2023-12-20T09:39:21;5.20;99.90
8953;DHT22;4511;50.890;8.054;2023-12-20T09:41:56;5.30;99.90
8953;DHT22;4511;50.890;8.054;2023-12-20T09:44:26;5.20;99.90
8953;DHT22;4511;50.890;8.054;2023-12-20T09:46:55;5.20;99.90
8953;DHT22;4511;50.890;8.054;2023-12-20T09:49:23;5.20;99.90
8953;DHT22;4511;50.890;8.054;2023-12-20T09:51:51;5.10;99.90
8953;DHT22;4511;50.890;8.054;2023-12-20T09:54:18;5.10;99.90
8953;DHT22;4511;50.890;8.054;2023-12-20T09:56:45;5.10;99.90
8953;DHT22;4511;50.890;8.054;2023-12-20T09:59:12;5.20;99.90
8953;DHT22;4511;50.890;8.054;2023-12-20T10:01:40;5.20;99.90
8953;DHT22;4511;50.890;8.054;2023-12-20T10:04:08;5.10;99.90
8953;DHT22;4511;50.890;8.054;2023-12-20T10:06:39;5.00;99.90
8953;DHT22;4511;50.890;8.054;2023-12-20T10:09:06;5.10;99.90
8953;DHT22;4511;50.890;8.054;2023-12-20T10:11:35;5.10;99.90
8953;DHT22;4511;50.890;8.054;2023-12-20T10:14:03;5.10;99.90
8953;DHT22;4511;50.890;8.054;2023-12-20T10:16:30;5.20;99.90
8953;DHT22;4511;50.890;8.054;2023-12-20T10:18:58;5.20;99.90
8953;DHT22;4511;50.890;8.054;2023-12-20T10:21:26;5.20;99.90
8953;DHT22;4511;50.890;8.054;2023-12-20T10:23:55;5.20;99.90
8953;DHT22;4511;50.890;8.054;2023-12-20T10:26:23;5.10;99.90
8953;DHT22;4511;50.890;8.054;2023-12-20T10:28:51;5.10;99.90
8953;DHT22;4511;50.890;8.054;2023-12-20T10:31:28;5.10;99.90
8953;DHT22;4511;50.890;8.054;2023-12-20T10:33:56;5.10;99.90
8953;DHT22;4511;50.890;8.054;2023-12-20T10:36:24;5.20;99.90
8953;DHT22;4511;50.890;8.054;2023-12-20T10:38:52;5.20;99.90
8953;DHT22;4511;50.890;8.054;2023-12-20T10:41:25;5.10;99.90
8953;DHT22;4511;50.890;8.054;2023-12-20T10:43:54;5.20;99.90
8953;DHT22;4511;50.890;8.054;2023-12-20T10:46:21;5.30;99.90
8953;DHT22;4511;50.890;8.054;2023-12-20T10:48:51;5.20;99.90
8953;DHT22;4511;50.890;8.054;2023-12-20T10:51:18;5.20;99.90
8953;DHT22;4511;50.890;8.054;2023-12-20T10:53:47;5.20;99.90
8953;DHT22;4511;50.890;8.054;2023-12-20T10:56:16;5.10;99.90
8953;DHT22;4511;50.890;8.054;2023-12-20T10:58:45;5.10;99.90
8953;DHT22;4511;50.890;8.054;2023-12-20T11:01:13;5.30;99.90
8953;DHT22;4511;50.890;8.054;2023-12-20T11:03:44;5.20;99.90
8953;DHT22;4511;50.890;8.054;2023-12-20T11:06:22;5.20;99.90
8953;DHT22;4511;50.890;8.054;2023-12-20T11:08:57;5.20;99.90
8953;DHT22;4511;50.890;8.054;2023-12-20T11:11:37;5.30;99.90
8953;DHT22;4511;50.890;8.054;2023-12-20T11:14:13;5.20;99.90
8953;DHT22;4511;50.890;8.054;2023-12-20T11:16:42;5.20;99.90
8953;DHT22;4511;50.890;8.054;2023-12-20T11:19:11;5.20;99.90
8953;DHT22;4511;50.890;8.054;2023-12-20T11:21:39;5.20;99.90
8953;DHT22;4511;50.890;8.054;2023-12-20T11:24:06;5.20;99.90
8953;DHT22;4511;50.890;8.054;2023-12-20T11:26:33;5.20;99.90
8953;DHT22;4511;50.890;8.054;2023-12-20T11:29:31;5.10;99.90
8953;DHT22;4511;50.890;8.054;2023-12-20T11:31:59;5.20;99.90
8953;DHT22;4511;50.890;8.054;2023-12-20T11:34:27;5.20;99.90
8953;DHT22;4511;50.890;8.054;2023-12-20T11:36:58;5.20;99.90
8953;DHT22;4511;50.890;8.054;2023-12-20T11:39:26;5.20;99.90
8953;DHT22;4511;50.890;8.054;2023-12-20T11:41:55;5.20;99.90
8953;DHT22;4511;50.890;8.054;2023-12-20T11:44:22;5.20;99.90
8953;DHT22;4511;50.890;8.054;2023-12-20T11:46:50;5.20;99.90
8953;DHT22;4511;50.890;8.054;2023-12-20T11:49:17;5.20;99.90
8953;DHT22;4511;50.890;8.054;2023-12-20T11:51:44;5.20;99.90
8953;DHT22;4511;50.890;8.054;2023-12-20T11:54:11;5.30;99.90
8953;DHT22;4511;50.890;8.054;2023-12-20T11:56:37;5.30;99.90
8953;DHT22;4511;50.890;8.054;2023-12-20T11:59:04;5.20;99.90
8953;DHT22;4511;50.890;8.054;2023-12-20T12:01:31;5.20;99.90
8953;DHT22;4511;50.890;8.054;2023-12-20T12:04:06;5.20;99.90
8953;DHT22;4511;50.890;8.054;2023-12-20T12:06:33;5.20;99.90
8953;DHT22;4511;50.890;8.054;2023-12-20T12:09:00;5.20;99.90
8953;DHT22;4511;50.890;8.054;2023-12-20T12:11:27;5.20;99.90
8953;DHT22;4511;50.890;8.054;2023-12-20T12:13:54;5.20;99.90
8953;DHT22;4511;50.890;8.054;2023-12-20T12:16:21;5.20;99.90
8953;DHT22;4511;50.890;8.054;2023-12-20T12:18:55;5.20;99.90
8953;DHT22;4511;50.890;8.054;2023-12-20T12:21:23;5.20;99.90
8953;DHT22;4511;50.890;8.054;2023-12-20T12:23:50;5.20;99.90
8953;DHT22;4511;50.890;8.054;2023-12-20T12:26:17;5.10;99.90
8953;DHT22;4511;50.890;8.054;2023-12-20T12:28:43;5.20;99.90
8953;DHT22;4511;50.890;8.054;2023-12-20T12:31:13;5.20;99.90
8953;DHT22;4511;50.890;8.054;2023-12-20T12:33:41;5.20;99.90
8953;DHT22;4511;50.890;8.054;2023-12-20T12:36:09;5.20;99.90
8953;DHT22;4511;50.890;8.054;2023-12-20T12:38:38;5.20;99.90
8953;DHT22;4511;50.890;8.054;2023-12-20T12:41:04;5.30;99.90
8953;DHT22;4511;50.890;8.054;2023-12-20T12:43:32;5.30;99.90
8953;DHT22;4511;50.890;8.054;2023-12-20T12:45:59;5.20;99.90
8953;DHT22;4511;50.890;8.054;2023-12-20T12:48:26;5.20;99.90
8953;DHT22;4511;50.890;8.054;2023-12-20T12:50:54;5.20;99.90
8953;DHT22;4511;50.890;8.054;2023-12-20T12:53:24;5.20;99.90
8953;DHT22;4511;50.890;8.054;2023-12-20T12:55:52;5.20;99.90
8953;DHT22;4511;50.890;8.054;2023-12-20T12:58:20;5.30;99.90
8953;DHT22;4511;50.890;8.054;2023-12-20T13:00:47;5.20;99.90
8953;DHT22;4511;50.890;8.054;2023-12-20T13:03:14;5.20;99.90
8953;DHT22;4511;50.890;8.054;2023-12-20T13:05:41;5.30;99.90
8953;DHT22;4511;50.890;8.054;2023-12-20T13:08:08;5.30;99.90
8953;DHT22;4511;50.890;8.054;2023-12-20T13:10:37;5.30;99.90
8953;DHT22;4511;50.890;8.054;2023-12-20T13:13:05;5.30;99.90
8953;DHT22;4511;50.890;8.054;2023-12-20T13:15:32;5.30;99.90
8953;DHT22;4511;50.890;8.054;2023-12-20T13:17:59;5.20;99.90
8953;DHT22;4511;50.890;8.054;2023-12-20T13:20:26;5.20;99.90
8953;DHT22;4511;50.890;8.054;2023-12-20T13:22:53;5.20;99.90
8953;DHT22;4511;50.890;8.054;2023-12-20T13:25:19;5.30;99.90
8953;DHT22;4511;50.890;8.054;2023-12-20T13:27:46;5.20;99.90
8953;DHT22;4511;50.890;8.054;2023-12-20T13:30:15;5.20;99.90
8953;DHT22;4511;50.890;8.054;2023-12-20T13:32:42;5.20;99.90
8953;DHT22;4511;50.890;8.054;2023-12-20T13:35:09;5.30;99.90
8953;DHT22;4511;50.890;8.054;2023-12-20T13:37:36;5.20;99.90
8953;DHT22;4511;50.890;8.054;2023-12-20T13:40:03;5.30;99.90
8953;DHT22;4511;50.890;8.054;2023-12-20T13:42:31;5.30;99.90
8953;DHT22;4511;50.890;8.054;2023-12-20T13:44:58;5.30;99.90
8953;DHT22;4511;50.890;8.054;2023-12-20T13:47:26;5.30;99.90
8953;DHT22;4511;50.890;8.054;2023-12-20T13:49:53;5.40;99.90
8953;DHT22;4511;50.890;8.054;2023-12-20T13:52:19;5.40;99.90
8953;DHT22;4511;50.890;8.054;2023-12-20T13:54:46;5.40;99.90
8953;DHT22;4511;50.890;8.054;2023-12-20T13:57:13;5.40;99.90
8953;DHT22;4511;50.890;8.054;2023-12-20T13:59:40;5.40;99.90
8953;DHT22;4511;50.890;8.054;2023-12-20T14:02:06;5.50;99.90
8953;DHT22;4511;50.890;8.054;2023-12-20T14:04:34;5.40;99.90
8953;DHT22;4511;50.890;8.054;2023-12-20T14:07:01;5.40;99.90
8953;DHT22;4511;50.890;8.054;2023-12-20T14:09:28;5.40;99.90
8953;DHT22;4511;50.890;8.054;2023-12-20T14:11:55;5.40;99.90
8953;DHT22;4511;50.890;8.054;2023-12-20T14:14:21;5.40;99.90
8953;DHT22;4511;50.890;8.054;2023-12-20T14:16:48;5.40;99.90
8953;DHT22;4511;50.890;8.054;2023-12-20T14:19:15;5.40;99.90
8953;DHT22;4511;50.890;8.054;2023-12-20T14:21:43;5.40;99.90
8953;DHT22;4511;50.890;8.054;2023-12-20T14:24:11;5.40;99.90
8953;DHT22;4511;50.890;8.054;2023-12-20T14:26:40;5.40;99.90
8953;DHT22;4511;50.890;8.054;2023-12-20T14:29:07;5.40;99.90
8953;DHT22;4511;50.890;8.054;2023-12-20T14:31:34;5.40;99.90
8953;DHT22;4511;50.890;8.054;2023-12-20T14:34:02;5.40;99.90
8953;DHT22;4511;50.890;8.054;2023-12-20T14:36:30;5.50;99.90
8953;DHT22;4511;50.890;8.054;2023-12-20T14:38:58;5.50;99.90
8953;DHT22;4511;50.890;8.054;2023-12-20T14:41:26;5.40;99.90
8953;DHT22;4511;50.890;8.054;2023-12-20T14:43:53;5.40;99.90
8953;DHT22;4511;50.890;8.054;2023-12-20T14:46:20;5.40;99.90
8953;DHT22;4511;50.890;8.054;2023-12-20T14:48:47;5.40;99.90
8953;DHT22;4511;50.890;8.054;2023-12-20T14:51:15;5.40;99.90
8953;DHT22;4511;50.890;8.054;2023-12-20T14:53:41;5.30;99.90
8953;DHT22;4511;50.890;8.054;2023-12-20T14:56:10;5.40;99.90
8953;DHT22;4511;50.890;8.054;2023-12-20T14:58:36;5.40;99.90
8953;DHT22;4511;50.890;8.054;2023-12-20T15:01:03;5.40;99.90
8953;DHT22;4511;50.890;8.054;2023-12-20T15:03:33;5.40;99.90
8953;DHT22;4511;50.890;8.054;2023-12-20T15:05:59;5.50;99.90
8953;DHT22;4511;50.890;8.054;2023-12-20T15:08:26;5.40;99.90
8953;DHT22;4511;50.890;8.054;2023-12-20T15:10:53;5.40;99.90
8953;DHT22;4511;50.890;8.054;2023-12-20T15:13:21;5.40;99.90
8953;DHT22;4511;50.890;8.054;2023-12-20T15:15:47;5.40;99.90
8953;DHT22;4511;50.890;8.054;2023-12-20T15:18:14;5.40;99.90
8953;DHT22;4511;50.890;8.054;2023-12-20T15:20:41;5.40;99.90
8953;DHT22;4511;50.890;8.054;2023-12-20T15:23:09;5.40;99.90
8953;DHT22;4511;50.890;8.054;2023-12-20T15:25:36;5.40;99.90
8953;DHT22;4511;50.890;8.054;2023-12-20T15:28:03;5.40;99.90
8953;DHT22;4511;50.890;8.054;2023-12-20T15:30:31;5.50;99.90
8953;DHT22;4511;50.890;8.054;2023-12-20T15:32:59;5.40;99.90
8953;DHT22;4511;50.890;8.054;2023-12-20T15:35:26;5.50;99.90
8953;DHT22;4511;50.890;8.054;2023-12-20T15:37:52;5.50;99.90
8953;DHT22;4511;50.890;8.054;2023-12-20T15:40:19;5.40;99.90
8953;DHT22;4511;50.890;8.054;2023-12-20T15:42:46;5.50;99.90
8953;DHT22;4511;50.890;8.054;2023-12-20T15:45:13;5.50;99.90
8953;DHT22;4511;50.890;8.054;2023-12-20T15:47:41;5.40;99.90
8953;DHT22;4511;50.890;8.054;2023-12-20T15:50:08;5.70;99.90
8953;DHT22;4511;50.890;8.054;2023-12-20T15:52:35;5.60;99.90
8953;DHT22;4511;50.890;8.054;2023-12-20T15:55:03;5.60;99.90
8953;DHT22;4511;50.890;8.054;2023-12-20T15:57:30;5.50;99.90
8953;DHT22;4511;50.890;8.054;2023-12-20T15:59:57;5.50;99.90
8953;DHT22;4511;50.890;8.054;2023-12-20T16:02:23;5.50;99.90
8953;DHT22;4511;50.890;8.054;2023-12-20T16:04:52;5.40;99.90
8953;DHT22;4511;50.890;8.054;2023-12-20T16:07:18;5.50;99.90
8953;DHT22;4511;50.890;8.054;2023-12-20T16:09:45;5.50;99.90
8953;DHT22;4511;50.890;8.054;2023-12-20T16:12:12;5.50;99.90
8953;DHT22;4511;50.890;8.054;2023-12-20T16:14:39;5.40;99.90
8953;DHT22;4511;50.890;8.054;2023-12-20T16:17:05;5.40;99.90